createdAt,value
2016-01-21T00:00:26.678Z,0
2016-01-21T00:01:26.697Z,0
2016-01-21T00:02:26.778Z,0
2016-01-21T00:03:26.780Z,0
2016-01-21T00:04:26.830Z,0
2016-01-21T00:05:26.864Z,0
2016-01-21T00:06:27.053Z,0
2016-01-21T00:07:26.947Z,0
2016-01-21T00:08:26.981Z,0
2016-01-21T00:09:27.031Z,0
2016-01-21T00:10:27.064Z,0
2016-01-21T00:11:27.129Z,0
2016-01-21T00:12:27.147Z,0
2016-01-21T00:13:27.010Z,0
2016-01-21T00:14:27.216Z,0
2016-01-21T00:15:27.266Z,0
2016-01-21T00:16:27.299Z,0
2016-01-21T00:17:27.348Z,0
2016-01-21T00:18:27.210Z,0
2016-01-21T00:19:27.401Z,0
2016-01-21T00:20:27.498Z,0
2016-01-21T00:21:27.485Z,0
2016-01-21T00:22:27.534Z,0
2016-01-21T00:23:27.552Z,0
2016-01-21T00:24:27.601Z,0
2016-01-21T00:25:27.636Z,0
2016-01-21T00:26:27.678Z,0
2016-01-21T00:27:27.717Z,0
2016-01-21T00:28:27.755Z,0
2016-01-21T00:29:27.748Z,0
2016-01-21T00:30:27.771Z,0
2016-01-21T00:31:27.830Z,0
2016-01-21T00:32:27.860Z,0
2016-01-21T00:33:27.890Z,0
2016-01-21T00:34:28.280Z,0
2016-01-21T00:35:27.982Z,0
2016-01-21T00:36:27.983Z,0
2016-01-21T00:37:28.031Z,0
2016-01-21T00:38:28.063Z,0
2016-01-21T00:39:28.128Z,0
2016-01-21T00:40:28.144Z,0
2016-01-21T00:41:28.178Z,0
2016-01-21T00:42:28.195Z,0
2016-01-21T00:43:28.650Z,0
2016-01-21T00:44:28.309Z,0
2016-01-21T00:45:28.325Z,0
2016-01-21T00:46:28.360Z,0
2016-01-21T00:47:28.425Z,0
2016-01-21T00:48:28.459Z,0
2016-01-21T00:49:28.493Z,0
2016-01-21T00:50:28.496Z,0
2016-01-21T00:51:28.561Z,0
2016-01-21T00:52:28.579Z,0
2016-01-21T00:53:28.644Z,0
2016-01-21T00:54:28.678Z,0
2016-01-21T00:55:28.712Z,0
2016-01-21T00:56:28.746Z,0
2016-01-21T00:57:28.858Z,0
2016-01-21T00:58:28.877Z,0
2016-01-21T00:59:28.863Z,0
2016-01-21T01:00:28.913Z,0
2016-01-21T01:01:28.946Z,0
2016-01-21T01:02:28.981Z,0
2016-01-21T01:03:29.031Z,0
2016-01-21T01:04:29.049Z,0
2016-01-21T01:05:29.130Z,0
2016-01-21T01:06:29.164Z,0
2016-01-21T01:07:29.198Z,0
2016-01-21T01:08:29.215Z,0
2016-01-21T01:09:29.250Z,0
2016-01-21T01:10:29.300Z,0
2016-01-21T01:11:29.349Z,0
2016-01-21T01:12:29.367Z,0
2016-01-21T01:13:29.401Z,0
2016-01-21T01:14:29.482Z,0
2016-01-21T01:15:29.500Z,0
2016-01-21T01:16:29.565Z,0
2016-01-21T01:17:29.568Z,0
2016-01-21T01:18:29.586Z,0
2016-01-21T01:19:29.652Z,0
2016-01-21T01:20:29.717Z,0
2016-01-21T01:21:29.736Z,0
2016-01-21T01:22:29.769Z,0
2016-01-21T01:23:29.803Z,0
2016-01-21T01:24:29.837Z,0
2016-01-21T01:25:29.871Z,0
2016-01-21T01:26:29.733Z,0
2016-01-21T01:27:29.971Z,0
2016-01-21T01:28:30.411Z,0
2016-01-21T01:29:30.022Z,0
2016-01-21T01:30:30.056Z,0
2016-01-21T01:31:29.949Z,0
2016-01-21T01:32:30.140Z,0
2016-01-21T01:33:30.190Z,0
2016-01-21T01:34:30.255Z,0
2016-01-21T01:35:30.257Z,0
2016-01-21T01:36:30.290Z,0
2016-01-21T01:37:30.512Z,0
2016-01-21T01:38:30.359Z,0
2016-01-21T01:39:30.268Z,0
2016-01-21T01:40:30.489Z,0
2016-01-21T01:41:30.492Z,0
2016-01-21T01:42:30.511Z,0
2016-01-21T01:43:30.559Z,0
2016-01-21T01:44:30.609Z,0
2016-01-21T01:45:30.487Z,0
2016-01-21T01:46:30.693Z,0
2016-01-21T01:47:30.727Z,0
2016-01-21T01:48:30.761Z,0
2016-01-21T01:49:30.655Z,0
2016-01-21T01:50:30.845Z,0
2016-01-21T01:51:30.863Z,0
2016-01-21T01:52:30.928Z,0
2016-01-21T01:53:30.930Z,0
2016-01-21T01:54:30.996Z,0
2016-01-21T01:55:31.030Z,0
2016-01-21T01:56:31.080Z,0
2016-01-21T01:57:31.097Z,0
2016-01-21T01:58:31.162Z,0
2016-01-21T01:59:31.181Z,0
2016-01-21T02:00:31.230Z,0
2016-01-21T02:01:31.265Z,0
2016-01-21T02:02:31.315Z,0
2016-01-21T02:03:31.552Z,0
2016-01-21T02:04:31.382Z,0
2016-01-21T02:05:31.415Z,0
2016-01-21T02:06:31.465Z,0
2016-01-21T02:07:31.499Z,0
2016-01-21T02:08:31.549Z,0
2016-01-21T02:09:31.568Z,0
2016-01-21T02:10:31.602Z,0
2016-01-21T02:11:31.651Z,0
2016-01-21T02:12:31.716Z,0
2016-01-21T02:13:31.719Z,0
2016-01-21T02:14:31.768Z,0
2016-01-21T02:15:31.787Z,0
2016-01-21T02:16:31.836Z,0
2016-01-21T02:17:31.886Z,0
2016-01-21T02:18:31.936Z,0
2016-01-21T02:19:31.953Z,0
2016-01-21T02:20:32.003Z,0
2016-01-21T02:21:32.021Z,0
2016-01-21T02:22:32.055Z,0
2016-01-21T02:23:32.105Z,0
2016-01-21T02:24:32.139Z,0
2016-01-21T02:25:32.205Z,0
2016-01-21T02:26:32.238Z,0
2016-01-21T02:27:32.272Z,0
2016-01-21T02:28:32.291Z,0
2016-01-21T02:29:32.340Z,0
2016-01-21T02:30:32.405Z,0
2016-01-21T02:31:32.408Z,0
2016-01-21T02:32:32.458Z,0
2016-01-21T02:33:32.491Z,0
2016-01-21T02:34:32.541Z,0
2016-01-21T02:35:32.590Z,0
2016-01-21T02:36:32.624Z,0
2016-01-21T02:37:32.659Z,0
2016-01-21T02:38:32.677Z,0
2016-01-21T02:39:32.836Z,0
2016-01-21T02:40:32.775Z,0
2016-01-21T02:41:32.794Z,0
2016-01-21T02:42:32.843Z,0
2016-01-21T02:43:32.862Z,0
2016-01-21T02:44:32.928Z,0
2016-01-21T02:45:32.945Z,0
2016-01-21T02:46:33.011Z,0
2016-01-21T02:47:33.028Z,0
2016-01-21T02:48:33.078Z,0
2016-01-21T02:49:33.112Z,0
2016-01-21T02:50:33.162Z,0
2016-01-21T02:51:33.197Z,0
2016-01-21T02:52:33.230Z,0
2016-01-21T02:53:33.264Z,0
2016-01-21T02:54:33.313Z,0
2016-01-21T02:55:33.316Z,0
2016-01-21T02:56:33.366Z,0
2016-01-21T02:57:33.525Z,0
2016-01-21T02:58:33.465Z,0
2016-01-21T02:59:33.499Z,0
2016-01-21T03:00:33.564Z,0
2016-01-21T03:01:33.566Z,0
2016-01-21T03:02:33.647Z,0
2016-01-21T03:03:33.634Z,0
2016-01-21T03:04:33.684Z,0
2016-01-21T03:05:33.734Z,0
2016-01-21T03:06:33.768Z,0
2016-01-21T03:07:33.818Z,0
2016-01-21T03:08:33.835Z,0
2016-01-21T03:09:33.870Z,0
2016-01-21T03:10:33.918Z,0
2016-01-21T03:11:33.968Z,0
2016-01-21T03:12:33.987Z,0
2016-01-21T03:13:34.084Z,0
2016-01-21T03:14:34.117Z,0
2016-01-21T03:15:34.151Z,0
2016-01-21T03:16:34.139Z,0
2016-01-21T03:17:34.203Z,0
2016-01-21T03:18:34.222Z,0
2016-01-21T03:19:34.272Z,0
2016-01-21T03:20:34.305Z,0
2016-01-21T03:21:34.339Z,0
2016-01-21T03:22:34.373Z,0
2016-01-21T03:23:34.423Z,0
2016-01-21T03:24:34.456Z,0
2016-01-21T03:25:34.538Z,0
2016-01-21T03:26:34.524Z,0
2016-01-21T03:27:34.574Z,0
2016-01-21T03:28:34.608Z,0
2016-01-21T03:29:34.674Z,0
2016-01-21T03:30:34.692Z,0
2016-01-21T03:31:34.741Z,0
2016-01-21T03:32:34.743Z,0
2016-01-21T03:33:35.090Z,0
2016-01-21T03:34:34.827Z,0
2016-01-21T03:35:34.924Z,0
2016-01-21T03:36:34.927Z,0
2016-01-21T03:37:34.977Z,0
2016-01-21T03:38:34.994Z,0
2016-01-21T03:39:35.043Z,0
2016-01-21T03:40:35.078Z,0
2016-01-21T03:41:35.112Z,0
2016-01-21T03:42:35.177Z,0
2016-01-21T03:43:35.195Z,0
2016-01-21T03:44:35.229Z,0
2016-01-21T03:45:35.295Z,0
2016-01-21T03:46:35.312Z,0
2016-01-21T03:47:35.362Z,0
2016-01-21T03:48:35.395Z,0
2016-01-21T03:49:35.445Z,0
2016-01-21T03:50:35.448Z,0
2016-01-21T03:51:35.514Z,0
2016-01-21T03:52:35.563Z,0
2016-01-21T03:53:35.597Z,0
2016-01-21T03:54:35.616Z,0
2016-01-21T03:55:35.649Z,0
2016-01-21T03:56:35.683Z,0
2016-01-21T03:57:35.733Z,0
2016-01-21T03:58:35.783Z,0
2016-01-21T03:59:35.801Z,0
2016-01-21T04:00:35.882Z,0
2016-01-21T04:01:35.978Z,0
2016-01-21T04:02:35.933Z,0
2016-01-21T04:03:35.952Z,0
2016-01-21T04:04:36.018Z,0
2016-01-21T04:05:36.052Z,0
2016-01-21T04:06:36.101Z,0
2016-01-21T04:07:36.134Z,0
2016-01-21T04:08:36.169Z,0
2016-01-21T04:09:36.202Z,0
2016-01-21T04:10:36.252Z,0
2016-01-21T04:11:36.286Z,0
2016-01-21T04:12:36.164Z,0
2016-01-21T04:13:36.385Z,0
2016-01-21T04:14:36.404Z,0
2016-01-21T04:15:36.437Z,0
2016-01-21T04:16:36.487Z,0
2016-01-21T04:17:36.506Z,0
2016-01-21T04:18:36.414Z,0
2016-01-21T04:19:36.589Z,0
2016-01-21T04:20:36.639Z,0
2016-01-21T04:21:36.673Z,0
2016-01-21T04:22:36.707Z,0
2016-01-21T04:23:36.740Z,0
2016-01-21T04:24:36.789Z,0
2016-01-21T04:25:36.808Z,0
2016-01-21T04:26:36.842Z,0
2016-01-21T04:27:37.205Z,0
2016-01-21T04:28:36.957Z,0
2016-01-21T04:29:37.006Z,0
2016-01-21T04:30:37.025Z,0
2016-01-21T04:31:37.044Z,0
2016-01-21T04:32:37.093Z,0
2016-01-21T04:33:37.127Z,0
2016-01-21T04:34:37.177Z,0
2016-01-21T04:35:37.226Z,0
2016-01-21T04:36:37.244Z,0
2016-01-21T04:37:37.481Z,0
2016-01-21T04:38:37.327Z,0
2016-01-21T04:39:37.377Z,0
2016-01-21T04:40:37.411Z,0
2016-01-21T04:41:37.430Z,0
2016-01-21T04:42:37.463Z,0
2016-01-21T04:43:37.498Z,0
2016-01-21T04:44:37.563Z,0
2016-01-21T04:45:37.597Z,0
2016-01-21T04:46:37.896Z,0
2016-01-21T04:47:37.712Z,0
2016-01-21T04:48:37.714Z,0
2016-01-21T04:49:37.748Z,0
2016-01-21T04:50:37.797Z,0
2016-01-21T04:51:37.816Z,0
2016-01-21T04:52:37.865Z,0
2016-01-21T04:53:37.900Z,0
2016-01-21T04:54:37.964Z,0
2016-01-21T04:55:37.967Z,0
2016-01-21T04:56:38.017Z,0
2016-01-21T04:57:38.051Z,0
2016-01-21T04:58:38.100Z,0
2016-01-21T04:59:38.134Z,0
2016-01-21T05:00:38.169Z,0
2016-01-21T05:01:38.218Z,0
2016-01-21T05:02:38.252Z,0
2016-01-21T05:03:38.285Z,0
2016-01-21T05:04:38.319Z,0
2016-01-21T05:05:38.385Z,0
2016-01-21T05:06:38.450Z,0
2016-01-21T05:07:38.438Z,0
2016-01-21T05:08:38.471Z,0
2016-01-21T05:09:38.520Z,0
2016-01-21T05:10:38.571Z,0
2016-01-21T05:11:38.588Z,0
2016-01-21T05:12:38.638Z,0
2016-01-21T05:13:38.672Z,0
2016-01-21T05:14:38.565Z,0
2016-01-21T05:15:38.755Z,0
2016-01-21T05:16:38.804Z,0
2016-01-21T05:17:38.824Z,0
2016-01-21T05:18:38.857Z,0
2016-01-21T05:19:38.907Z,0
2016-01-21T05:20:38.941Z,0
2016-01-21T05:21:38.990Z,0
2016-01-21T05:22:39.024Z,0
2016-01-21T05:23:39.073Z,0
2016-01-21T05:24:39.092Z,0
2016-01-21T05:25:39.126Z,0
2016-01-21T05:26:39.176Z,0
2016-01-21T05:27:39.225Z,0
2016-01-21T05:28:39.275Z,0
2016-01-21T05:29:39.278Z,0
2016-01-21T05:30:39.343Z,0
2016-01-21T05:31:39.377Z,0
2016-01-21T05:32:39.410Z,0
2016-01-21T05:33:39.444Z,0
2016-01-21T05:34:39.478Z,16
2016-01-21T05:35:39.528Z,16
2016-01-21T05:36:39.577Z,16
2016-01-21T05:37:39.611Z,16
2016-01-21T05:38:39.646Z,20
2016-01-21T05:39:39.679Z,16
2016-01-21T05:40:39.713Z,16
2016-01-21T05:41:39.763Z,16
2016-01-21T05:42:39.796Z,16
2016-01-21T05:43:39.830Z,16
2016-01-21T05:44:39.880Z,20
2016-01-21T05:45:39.915Z,16
2016-01-21T05:46:39.964Z,16
2016-01-21T05:47:39.998Z,16
2016-01-21T05:48:40.032Z,16
2016-01-21T05:49:40.096Z,20
2016-01-21T05:50:40.115Z,16
2016-01-21T05:51:40.134Z,16
2016-01-21T05:52:40.199Z,20
2016-01-21T05:53:40.233Z,16
2016-01-21T05:54:40.266Z,16
2016-01-21T05:55:40.317Z,20
2016-01-21T05:56:40.350Z,16
2016-01-21T05:57:40.384Z,20
2016-01-21T05:58:40.433Z,16
2016-01-21T05:59:40.467Z,16
2016-01-21T06:00:40.517Z,0
2016-01-21T06:01:40.567Z,0
2016-01-21T06:02:40.586Z,0
2016-01-21T06:03:40.603Z,0
2016-01-21T06:04:40.668Z,0
2016-01-21T06:05:40.718Z,0
2016-01-21T06:06:40.722Z,0
2016-01-21T06:07:40.770Z,0
2016-01-21T06:08:40.804Z,0
2016-01-21T06:09:40.854Z,0
2016-01-21T06:10:40.903Z,0
2016-01-21T06:11:40.937Z,0
2016-01-21T06:12:40.971Z,0
2016-01-21T06:13:41.005Z,0
2016-01-21T06:14:41.055Z,0
2016-01-21T06:15:41.089Z,0
2016-01-21T06:16:41.138Z,0
2016-01-21T06:17:41.204Z,0
2016-01-21T06:18:41.206Z,0
2016-01-21T06:19:41.271Z,0
2016-01-21T06:20:41.305Z,0
2016-01-21T06:21:41.323Z,0
2016-01-21T06:22:41.357Z,0
2016-01-21T06:23:41.423Z,0
2016-01-21T06:24:41.472Z,0
2016-01-21T06:25:41.490Z,0
2016-01-21T06:26:41.509Z,0
2016-01-21T06:27:41.574Z,0
2016-01-21T06:28:41.608Z,0
2016-01-21T06:29:41.673Z,0
2016-01-21T06:30:41.675Z,0
2016-01-21T06:31:41.757Z,0
2016-01-21T06:32:41.775Z,0
2016-01-21T06:33:41.840Z,0
2016-01-21T06:34:41.843Z,0
2016-01-21T06:35:41.877Z,0
2016-01-21T06:36:41.942Z,0
2016-01-21T06:37:41.961Z,0
2016-01-21T06:38:42.057Z,0
2016-01-21T06:39:42.044Z,0
2016-01-21T06:40:42.093Z,0
2016-01-21T06:41:42.111Z,0
2016-01-21T06:42:42.193Z,0
2016-01-21T06:43:42.210Z,0
2016-01-21T06:44:42.244Z,0
2016-01-21T06:45:42.279Z,0
2016-01-21T06:46:42.329Z,0
2016-01-21T06:47:42.394Z,0
2016-01-21T06:48:42.412Z,0
2016-01-21T06:49:42.446Z,0
2016-01-21T06:50:42.495Z,0
2016-01-21T06:51:42.529Z,0
2016-01-21T06:52:42.579Z,0
2016-01-21T06:53:42.613Z,0
2016-01-21T06:54:42.662Z,0
2016-01-21T06:55:42.696Z,0
2016-01-21T06:56:42.731Z,0
2016-01-21T06:57:42.764Z,0
2016-01-21T06:58:42.829Z,0
2016-01-21T06:59:42.832Z,0
2016-01-21T07:00:42.913Z,0
2016-01-21T07:01:42.931Z,0
2016-01-21T07:02:42.981Z,4
2016-01-21T07:03:43.000Z,4
2016-01-21T07:04:43.048Z,0
2016-01-21T07:05:43.098Z,0
2016-01-21T07:06:43.147Z,0
2016-01-21T07:07:43.182Z,4
2016-01-21T07:08:43.215Z,4
2016-01-21T07:09:43.249Z,0
2016-01-21T07:10:43.314Z,4
2016-01-21T07:11:43.333Z,4
2016-01-21T07:12:43.367Z,4
2016-01-21T07:13:43.416Z,4
2016-01-21T07:14:43.482Z,4
2016-01-21T07:15:43.484Z,8
2016-01-21T07:16:43.550Z,4
2016-01-21T07:17:43.568Z,8
2016-01-21T07:18:43.633Z,4
2016-01-21T07:19:43.651Z,8
2016-01-21T07:20:43.701Z,12
2016-01-21T07:21:43.719Z,8
2016-01-21T07:22:43.816Z,12
2016-01-21T07:23:43.818Z,12
2016-01-21T07:24:43.852Z,12
2016-01-21T07:25:43.902Z,16
2016-01-21T07:26:43.921Z,12
2016-01-21T07:27:43.985Z,16
2016-01-21T07:28:44.034Z,16
2016-01-21T07:29:44.053Z,20
2016-01-21T07:30:44.073Z,20
2016-01-21T07:31:44.152Z,20
2016-01-21T07:32:44.156Z,20
2016-01-21T07:33:44.220Z,24
2016-01-21T07:34:44.239Z,28
2016-01-21T07:35:44.304Z,28
2016-01-21T07:36:44.338Z,28
2016-01-21T07:37:44.372Z,28
2016-01-21T07:38:44.421Z,28
2016-01-21T07:39:44.455Z,36
2016-01-21T07:40:44.489Z,36
2016-01-21T07:41:44.538Z,36
2016-01-21T07:42:44.557Z,36
2016-01-21T07:43:44.622Z,40
2016-01-21T07:44:44.656Z,44
2016-01-21T07:45:44.706Z,44
2016-01-21T07:46:44.724Z,48
2016-01-21T07:47:44.789Z,48
2016-01-21T07:48:44.823Z,52
2016-01-21T07:49:44.841Z,52
2016-01-21T07:50:44.907Z,56
2016-01-21T07:51:44.924Z,56
2016-01-21T07:52:44.974Z,60
2016-01-21T07:53:44.993Z,60
2016-01-21T07:54:45.042Z,60
2016-01-21T07:55:45.092Z,60
2016-01-21T07:56:45.126Z,60
2016-01-21T07:57:45.160Z,60
2016-01-21T07:58:45.193Z,64
2016-01-21T07:59:45.275Z,64
2016-01-21T08:00:45.278Z,64
2016-01-21T08:01:45.312Z,64
2016-01-21T08:02:45.376Z,64
2016-01-21T08:03:45.395Z,68
2016-01-21T08:04:45.444Z,68
2016-01-21T08:05:45.478Z,72
2016-01-21T08:06:45.528Z,76
2016-01-21T08:07:45.547Z,80
2016-01-21T08:08:45.611Z,80
2016-01-21T08:09:45.630Z,84
2016-01-21T08:10:45.711Z,84
2016-01-21T08:11:45.729Z,88
2016-01-21T08:12:45.763Z,88
2016-01-21T08:13:45.797Z,104
2016-01-21T08:14:45.846Z,104
2016-01-21T08:15:45.880Z,104
2016-01-21T08:16:45.930Z,100
2016-01-21T08:17:45.979Z,100
2016-01-21T08:18:45.998Z,108
2016-01-21T08:19:46.047Z,120
2016-01-21T08:20:46.065Z,124
2016-01-21T08:21:46.130Z,124
2016-01-21T08:22:46.149Z,120
2016-01-21T08:23:46.215Z,124
2016-01-21T08:24:46.232Z,132
2016-01-21T08:25:46.282Z,136
2016-01-21T08:26:46.144Z,136
2016-01-21T08:27:46.366Z,140
2016-01-21T08:28:46.385Z,148
2016-01-21T08:29:46.434Z,144
2016-01-21T08:30:46.687Z,140
2016-01-21T08:31:47.126Z,140
2016-01-21T08:32:46.970Z,140
2016-01-21T08:33:47.098Z,140
2016-01-21T08:34:47.632Z,140
2016-01-21T08:35:46.682Z,140
2016-01-21T08:36:46.700Z,136
2016-01-21T08:37:46.766Z,136
2016-01-21T08:38:46.783Z,136
2016-01-21T08:39:46.849Z,140
2016-01-21T08:40:46.883Z,144
2016-01-21T08:41:46.932Z,144
2016-01-21T08:42:46.935Z,144
2016-01-21T08:43:46.984Z,144
2016-01-21T08:44:47.050Z,148
2016-01-21T08:45:47.084Z,148
2016-01-21T08:46:47.118Z,160
2016-01-21T08:47:47.137Z,168
2016-01-21T08:48:47.186Z,176
2016-01-21T08:49:47.236Z,184
2016-01-21T08:50:47.270Z,184
2016-01-21T08:51:47.303Z,192
2016-01-21T08:52:47.353Z,192
2016-01-21T08:53:47.387Z,188
2016-01-21T08:54:47.422Z,200
2016-01-21T08:55:47.486Z,204
2016-01-21T08:56:47.506Z,216
2016-01-21T08:57:47.555Z,224
2016-01-21T08:58:47.573Z,228
2016-01-21T08:59:47.622Z,240
2016-01-21T09:00:47.672Z,224
2016-01-21T09:01:47.706Z,232
2016-01-21T09:02:47.756Z,252
2016-01-21T09:03:47.649Z,252
2016-01-21T09:04:47.808Z,252
2016-01-21T09:05:47.857Z,244
2016-01-21T09:06:47.908Z,260
2016-01-21T09:07:47.942Z,272
2016-01-21T09:08:47.975Z,260
2016-01-21T09:09:48.025Z,260
2016-01-21T09:10:48.137Z,248
2016-01-21T09:11:48.108Z,224
2016-01-21T09:12:48.142Z,216
2016-01-21T09:13:48.160Z,212
2016-01-21T09:14:48.210Z,212
2016-01-21T09:15:48.229Z,216
2016-01-21T09:16:48.528Z,216
2016-01-21T09:17:48.313Z,216
2016-01-21T09:18:48.347Z,220
2016-01-21T09:19:48.365Z,220
2016-01-21T09:20:48.413Z,220
2016-01-21T09:21:48.463Z,228
2016-01-21T09:22:48.513Z,236
2016-01-21T09:23:48.547Z,236
2016-01-21T09:24:48.581Z,220
2016-01-21T09:25:48.693Z,216
2016-01-21T09:26:48.665Z,228
2016-01-21T09:27:48.682Z,236
2016-01-21T09:28:48.732Z,240
2016-01-21T09:29:48.750Z,248
2016-01-21T09:30:48.816Z,236
2016-01-21T09:31:48.834Z,236
2016-01-21T09:32:48.871Z,248
2016-01-21T09:33:48.890Z,264
2016-01-21T09:34:48.925Z,280
2016-01-21T09:35:48.975Z,272
2016-01-21T09:36:48.962Z,256
2016-01-21T09:37:49.021Z,264
2016-01-21T09:38:49.034Z,268
2016-01-21T09:39:49.078Z,292
2016-01-21T09:40:49.107Z,272
2016-01-21T09:41:49.151Z,292
2016-01-21T09:42:49.167Z,296
2016-01-21T09:43:49.231Z,320
2016-01-21T09:44:49.246Z,324
2016-01-21T09:45:49.278Z,328
2016-01-21T09:46:49.326Z,336
2016-01-21T09:47:49.609Z,348
2016-01-21T09:48:51.158Z,356
2016-01-21T09:49:50.832Z,340
2016-01-21T09:50:50.193Z,360
2016-01-21T09:51:49.539Z,380
2016-01-21T09:52:49.556Z,376
2016-01-21T09:53:49.606Z,380
2016-01-21T09:54:49.640Z,376
2016-01-21T09:55:49.690Z,368
2016-01-21T09:56:49.724Z,388
2016-01-21T09:57:49.773Z,448
2016-01-21T09:58:49.808Z,476
2016-01-21T09:59:49.858Z,468
2016-01-21T10:00:50.125Z,468
2016-01-21T10:01:49.940Z,472
2016-01-21T10:02:49.959Z,480
2016-01-21T10:03:50.008Z,464
2016-01-21T10:04:50.058Z,480
2016-01-21T10:05:50.092Z,484
2016-01-21T10:06:50.127Z,496
2016-01-21T10:07:50.160Z,504
2016-01-21T10:08:50.209Z,496
2016-01-21T10:09:50.243Z,456
2016-01-21T10:10:50.277Z,452
2016-01-21T10:11:50.327Z,460
2016-01-21T10:12:50.361Z,456
2016-01-21T10:13:50.410Z,440
2016-01-21T10:14:50.460Z,436
2016-01-21T10:15:50.494Z,436
2016-01-21T10:16:50.543Z,424
2016-01-21T10:17:50.577Z,428
2016-01-21T10:18:50.815Z,440
2016-01-21T10:19:50.646Z,444
2016-01-21T10:20:50.711Z,452
2016-01-21T10:21:50.729Z,448
2016-01-21T10:22:50.826Z,452
2016-01-21T10:23:50.797Z,452
2016-01-21T10:24:50.862Z,448
2016-01-21T10:25:50.895Z,452
2016-01-21T10:26:50.977Z,452
2016-01-21T10:27:50.979Z,456
2016-01-21T10:28:51.028Z,456
2016-01-21T10:29:51.048Z,452
2016-01-21T10:30:51.112Z,460
2016-01-21T10:31:51.131Z,456
2016-01-21T10:32:51.164Z,456
2016-01-21T10:33:51.214Z,464
2016-01-21T10:34:51.280Z,468
2016-01-21T10:35:51.297Z,468
2016-01-21T10:36:51.347Z,460
2016-01-21T10:37:51.397Z,460
2016-01-21T10:38:51.430Z,456
2016-01-21T10:39:51.466Z,464
2016-01-21T10:40:51.341Z,476
2016-01-21T10:41:51.533Z,472
2016-01-21T10:42:51.599Z,476
2016-01-21T10:43:51.632Z,480
2016-01-21T10:44:51.666Z,480
2016-01-21T10:45:51.716Z,480
2016-01-21T10:46:51.765Z,476
2016-01-21T10:47:51.783Z,476
2016-01-21T10:48:51.818Z,472
2016-01-21T10:49:51.867Z,476
2016-01-21T10:50:51.916Z,480
2016-01-21T10:51:51.951Z,496
2016-01-21T10:52:51.985Z,492
2016-01-21T10:53:51.329Z,492
2016-01-21T10:54:52.393Z,496
2016-01-21T10:55:52.130Z,496
2016-01-21T10:56:52.148Z,500
2016-01-21T10:57:53.151Z,496
2016-01-21T10:58:52.467Z,492
2016-01-21T10:59:52.407Z,492
2016-01-21T11:00:52.316Z,492
2016-01-21T11:01:52.351Z,488
2016-01-21T11:02:52.400Z,484
2016-01-21T11:03:52.418Z,484
2016-01-21T11:04:52.515Z,492
2016-01-21T11:05:52.534Z,496
2016-01-21T11:06:52.568Z,504
2016-01-21T11:07:52.601Z,508
2016-01-21T11:08:52.620Z,508
2016-01-21T11:09:52.653Z,504
2016-01-21T11:10:52.704Z,500
2016-01-21T11:11:52.754Z,508
2016-01-21T11:12:53.006Z,516
2016-01-21T11:13:52.820Z,524
2016-01-21T11:14:52.870Z,532
2016-01-21T11:15:52.905Z,532
2016-01-21T11:16:52.969Z,528
2016-01-21T11:17:53.003Z,536
2016-01-21T11:18:53.053Z,544
2016-01-21T11:19:53.056Z,556
2016-01-21T11:20:53.121Z,560
2016-01-21T11:21:53.155Z,560
2016-01-21T11:22:53.205Z,556
2016-01-21T11:23:53.239Z,580
2016-01-21T11:24:53.272Z,620
2016-01-21T11:25:53.306Z,696
2016-01-21T11:26:53.356Z,704
2016-01-21T11:27:53.390Z,700
2016-01-21T11:28:53.736Z,736
2016-01-21T11:29:53.459Z,756
2016-01-21T11:30:53.523Z,708
2016-01-21T11:31:53.542Z,716
2016-01-21T11:32:53.592Z,716
2016-01-21T11:33:53.625Z,720
2016-01-21T11:34:53.675Z,676
2016-01-21T11:35:53.699Z,620
2016-01-21T11:36:53.748Z,628
2016-01-21T11:37:53.797Z,688
2016-01-21T11:38:53.863Z,700
2016-01-21T11:39:53.896Z,668
2016-01-21T11:40:53.930Z,600
2016-01-21T11:41:53.965Z,576
2016-01-21T11:42:54.002Z,556
2016-01-21T11:43:54.036Z,564
2016-01-21T11:44:54.085Z,572
2016-01-21T11:45:54.355Z,628
2016-01-21T11:46:54.169Z,672
2016-01-21T11:47:54.202Z,656
2016-01-21T11:48:54.237Z,684
2016-01-21T11:49:54.286Z,644
2016-01-21T11:50:54.321Z,648
2016-01-21T11:51:54.355Z,644
2016-01-21T11:52:54.404Z,648
2016-01-21T11:53:54.438Z,592
2016-01-21T11:54:54.488Z,576
2016-01-21T11:55:54.538Z,572
2016-01-21T11:56:54.555Z,592
2016-01-21T11:57:55.339Z,632
2016-01-21T11:58:54.967Z,688
2016-01-21T11:59:55.188Z,740
2016-01-21T12:00:55.285Z,872
2016-01-21T12:01:54.773Z,1008
2016-01-21T12:02:54.640Z,956
2016-01-21T12:03:55.049Z,792
2016-01-21T12:04:54.880Z,720
2016-01-21T12:05:54.929Z,704
2016-01-21T12:06:54.948Z,740
2016-01-21T12:07:55.029Z,748
2016-01-21T12:08:55.032Z,744
2016-01-21T12:09:54.924Z,720
2016-01-21T12:10:55.099Z,696
2016-01-21T12:11:55.148Z,688
2016-01-21T12:12:55.198Z,736
2016-01-21T12:13:55.248Z,792
2016-01-21T12:14:55.297Z,788
2016-01-21T12:15:55.301Z,780
2016-01-21T12:16:55.350Z,812
2016-01-21T12:17:55.400Z,864
2016-01-21T12:18:55.449Z,896
2016-01-21T12:19:55.498Z,960
2016-01-21T12:20:55.533Z,968
2016-01-21T12:21:55.551Z,908
2016-01-21T12:22:55.600Z,876
2016-01-21T12:23:55.666Z,836
2016-01-21T12:24:55.683Z,836
2016-01-21T12:25:55.733Z,864
2016-01-21T12:26:55.752Z,916
2016-01-21T12:27:55.926Z,956
2016-01-21T12:28:55.851Z,996
2016-01-21T12:29:55.885Z,976
2016-01-21T12:30:55.935Z,1008
2016-01-21T12:31:55.952Z,1000
2016-01-21T12:32:56.019Z,1000
2016-01-21T12:33:56.052Z,952
2016-01-21T12:34:56.116Z,876
2016-01-21T12:35:56.136Z,852
2016-01-21T12:36:56.169Z,864
2016-01-21T12:37:56.044Z,908
2016-01-21T12:38:56.250Z,916
2016-01-21T12:39:56.284Z,916
2016-01-21T12:40:56.334Z,940
2016-01-21T12:41:56.383Z,968
2016-01-21T12:42:56.417Z,980
2016-01-21T12:43:56.451Z,968
2016-01-21T12:44:56.470Z,968
2016-01-21T12:45:56.519Z,964
2016-01-21T12:46:56.568Z,972
2016-01-21T12:47:56.603Z,968
2016-01-21T12:48:56.637Z,964
2016-01-21T12:49:56.686Z,956
2016-01-21T12:50:56.767Z,992
2016-01-21T12:51:56.769Z,1008
2016-01-21T12:52:56.819Z,1012
2016-01-21T12:53:56.853Z,1052
2016-01-21T12:54:56.918Z,1092
2016-01-21T12:55:56.921Z,1132
2016-01-21T12:56:56.987Z,1176
2016-01-21T12:57:57.020Z,1196
2016-01-21T12:58:58.554Z,1208
2016-01-21T12:59:57.401Z,1224
2016-01-21T13:00:57.139Z,1204
2016-01-21T13:01:57.187Z,1228
2016-01-21T13:02:57.065Z,1216
2016-01-21T13:03:57.256Z,1196
2016-01-21T13:04:57.305Z,1148
2016-01-21T13:05:57.355Z,1136
2016-01-21T13:06:57.405Z,1212
2016-01-21T13:07:57.408Z,1324
2016-01-21T13:08:57.456Z,816
2016-01-21T13:09:57.491Z,1228
2016-01-21T13:10:57.525Z,1060
2016-01-21T13:11:57.590Z,960
2016-01-21T13:12:57.639Z,940
2016-01-21T13:13:57.689Z,948
2016-01-21T13:14:57.691Z,940
2016-01-21T13:15:57.741Z,900
2016-01-21T13:16:57.775Z,892
2016-01-21T13:17:57.840Z,832
2016-01-21T13:18:57.874Z,776
2016-01-21T13:19:57.907Z,748
2016-01-21T13:20:57.957Z,744
2016-01-21T13:21:57.991Z,744
2016-01-21T13:22:58.057Z,756
2016-01-21T13:23:58.075Z,772
2016-01-21T13:24:58.140Z,776
2016-01-21T13:25:58.143Z,768
2016-01-21T13:26:58.193Z,760
2016-01-21T13:27:58.226Z,752
2016-01-21T13:28:58.620Z,744
2016-01-21T13:29:58.623Z,740
2016-01-21T13:30:58.375Z,740
2016-01-21T13:31:58.409Z,736
2016-01-21T13:32:58.443Z,736
2016-01-21T13:33:58.478Z,752
2016-01-21T13:34:58.526Z,732
2016-01-21T13:35:58.545Z,720
2016-01-21T13:36:58.594Z,732
2016-01-21T13:37:58.630Z,736
2016-01-21T13:38:58.679Z,732
2016-01-21T13:39:58.697Z,712
2016-01-21T13:40:58.762Z,688
2016-01-21T13:41:58.782Z,672
2016-01-21T13:42:58.831Z,672
2016-01-21T13:43:58.864Z,676
2016-01-21T13:44:58.898Z,672
2016-01-21T13:45:58.947Z,664
2016-01-21T13:46:59.013Z,656
2016-01-21T13:47:59.075Z,652
2016-01-21T13:48:59.073Z,648
2016-01-21T13:49:59.169Z,644
2016-01-21T13:50:59.485Z,652
2016-01-21T13:51:59.308Z,648
2016-01-21T13:52:59.233Z,640
2016-01-21T13:53:59.266Z,628
2016-01-21T13:54:59.659Z,632
2016-01-21T13:55:59.350Z,644
2016-01-21T13:56:59.383Z,632
2016-01-21T13:57:59.433Z,608
2016-01-21T13:58:59.452Z,576
2016-01-21T13:59:59.516Z,556
2016-01-21T14:00:59.582Z,548
2016-01-21T14:01:59.647Z,548
2016-01-21T14:02:59.649Z,544
2016-01-21T14:03:59.669Z,548
2016-01-21T14:04:59.702Z,548
2016-01-21T14:05:59.751Z,536
2016-01-21T14:06:59.801Z,528
2016-01-21T14:07:59.851Z,540
2016-01-21T14:08:59.869Z,520
2016-01-21T14:09:59.934Z,492
2016-01-21T14:10:59.937Z,496
2016-01-21T14:12:00.013Z,508
2016-01-21T14:13:00.046Z,512
2016-01-21T14:14:00.081Z,536
2016-01-21T14:15:00.302Z,564
2016-01-21T14:16:00.164Z,588
2016-01-21T14:17:00.199Z,648